sensor_id;sensor_type;location;lat;lon;timestamp;temperature;humidity
67817;DHT22;54614;47.576;7.524;2023-06-22T00:01:09;28.20;65.30
67817;DHT22;54614;47.576;7.524;2023-06-22T00:03:35;28.20;65.30
67817;DHT22;54614;47.576;7.524;2023-06-22T00:06:00;28.20;65.30
67817;DHT22;54614;47.576;7.524;2023-06-22T00:08:26;28.20;65.10
67817;DHT22;54614;47.576;7.524;2023-06-22T00:10:51;28.20;65.10
67817;DHT22;54614;47.576;7.524;2023-06-22T00:13:17;28.20;65.20
67817;DHT22;54614;47.576;7.524;2023-06-22T00:15:43;28.20;65.20
67817;DHT22;54614;47.576;7.524;2023-06-22T00:18:10;28.20;65.00
67817;DHT22;54614;47.576;7.524;2023-06-22T00:20:37;28.20;65.10
67817;DHT22;54614;47.576;7.524;2023-06-22T00:23:04;28.20;65.10
67817;DHT22;54614;47.576;7.524;2023-06-22T00:25:37;28.20;65.10
67817;DHT22;54614;47.576;7.524;2023-06-22T00:28:04;28.20;65.10
67817;DHT22;54614;47.576;7.524;2023-06-22T00:30:30;28.20;64.90
67817;DHT22;54614;47.576;7.524;2023-06-22T00:32:56;28.20;65.00
67817;DHT22;54614;47.576;7.524;2023-06-22T00:35:22;28.10;64.90
67817;DHT22;54614;47.576;7.524;2023-06-22T00:37:48;28.20;64.90
67817;DHT22;54614;47.576;7.524;2023-06-22T00:40:13;28.20;64.90
67817;DHT22;54614;47.576;7.524;2023-06-22T00:42:40;28.20;65.00
67817;DHT22;54614;47.576;7.524;2023-06-22T00:45:07;28.10;64.80
67817;DHT22;54614;47.576;7.524;2023-06-22T00:47:34;28.10;64.80
67817;DHT22;54614;47.576;7.524;2023-06-22T00:50:00;28.10;64.80
67817;DHT22;54614;47.576;7.524;2023-06-22T00:52:26;28.10;64.80
67817;DHT22;54614;47.576;7.524;2023-06-22T00:54:56;28.10;64.80
67817;DHT22;54614;47.576;7.524;2023-06-22T00:57:22;28.10;64.80
67817;DHT22;54614;47.576;7.524;2023-06-22T00:59:50;28.10;64.80
67817;DHT22;54614;47.576;7.524;2023-06-22T01:02:16;28.10;64.70
67817;DHT22;54614;47.576;7.524;2023-06-22T01:04:41;28.10;64.80
67817;DHT22;54614;47.576;7.524;2023-06-22T01:07:31;28.10;64.70
67817;DHT22;54614;47.576;7.524;2023-06-22T01:10:21;28.00;64.70
67817;DHT22;54614;47.576;7.524;2023-06-22T01:12:51;28.00;64.80
67817;DHT22;54614;47.576;7.524;2023-06-22T01:15:36;28.00;64.70
67817;DHT22;54614;47.576;7.524;2023-06-22T01:18:04;28.00;64.70
67817;DHT22;54614;47.576;7.524;2023-06-22T01:20:33;28.00;64.60
67817;DHT22;54614;47.576;7.524;2023-06-22T01:28:50;28.10;64.60
67817;DHT22;54614;47.576;7.524;2023-06-22T01:31:24;28.00;64.50
67817;DHT22;54614;47.576;7.524;2023-06-22T01:33:55;28.00;64.50
67817;DHT22;54614;47.576;7.524;2023-06-22T01:36:24;28.00;64.50
67817;DHT22;54614;47.576;7.524;2023-06-22T01:38:52;28.00;64.50
67817;DHT22;54614;47.576;7.524;2023-06-22T01:41:19;28.00;64.50
67817;DHT22;54614;47.576;7.524;2023-06-22T01:43:47;28.00;64.50
67817;DHT22;54614;47.576;7.524;2023-06-22T01:46:14;28.00;64.50
67817;DHT22;54614;47.576;7.524;2023-06-22T01:48:40;28.00;64.50
67817;DHT22;54614;47.576;7.524;2023-06-22T01:51:06;28.00;64.50
67817;DHT22;54614;47.576;7.524;2023-06-22T01:53:31;28.00;64.50
67817;DHT22;54614;47.576;7.524;2023-06-22T01:55:57;28.00;64.50
67817;DHT22;54614;47.576;7.524;2023-06-22T01:58:26;28.00;64.50
67817;DHT22;54614;47.576;7.524;2023-06-22T02:00:59;28.00;64.40
67817;DHT22;54614;47.576;7.524;2023-06-22T02:03:35;28.00;64.40
67817;DHT22;54614;47.576;7.524;2023-06-22T02:06:14;28.00;64.40
67817;DHT22;54614;47.576;7.524;2023-06-22T02:08:48;28.00;65.00
67817;DHT22;54614;47.576;7.524;2023-06-22T02:11:18;27.90;64.40
67817;DHT22;54614;47.576;7.524;2023-06-22T02:13:44;27.90;64.40
67817;DHT22;54614;47.576;7.524;2023-06-22T02:16:12;27.90;64.40
67817;DHT22;54614;47.576;7.524;2023-06-22T02:18:38;28.00;64.50
67817;DHT22;54614;47.576;7.524;2023-06-22T02:21:05;27.90;64.40
67817;DHT22;54614;47.576;7.524;2023-06-22T02:23:31;27.90;64.40
67817;DHT22;54614;47.576;7.524;2023-06-22T02:26:00;27.90;64.40
67817;DHT22;54614;47.576;7.524;2023-06-22T02:28:26;27.90;65.10
67817;DHT22;54614;47.576;7.524;2023-06-22T02:30:51;27.90;64.40
67817;DHT22;54614;47.576;7.524;2023-06-22T02:33:17;27.90;64.40
67817;DHT22;54614;47.576;7.524;2023-06-22T02:35:42;27.90;64.30
67817;DHT22;54614;47.576;7.524;2023-06-22T02:38:11;27.90;64.30
67817;DHT22;54614;47.576;7.524;2023-06-22T02:40:36;27.90;64.40
67817;DHT22;54614;47.576;7.524;2023-06-22T02:43:03;27.90;64.30
67817;DHT22;54614;47.576;7.524;2023-06-22T02:45:29;27.90;64.30
67817;DHT22;54614;47.576;7.524;2023-06-22T02:47:55;27.90;64.20
67817;DHT22;54614;47.576;7.524;2023-06-22T02:50:21;27.90;64.20
67817;DHT22;54614;47.576;7.524;2023-06-22T02:52:46;27.80;64.10
67817;DHT22;54614;47.576;7.524;2023-06-22T02:55:13;27.80;64.10
67817;DHT22;54614;47.576;7.524;2023-06-22T02:57:38;27.80;64.10
67817;DHT22;54614;47.576;7.524;2023-06-22T03:00:09;27.80;64.10
67817;DHT22;54614;47.576;7.524;2023-06-22T03:02:45;27.80;64.10
67817;DHT22;54614;47.576;7.524;2023-06-22T03:05:11;27.80;64.10
67817;DHT22;54614;47.576;7.524;2023-06-22T03:07:40;27.80;64.40
67817;DHT22;54614;47.576;7.524;2023-06-22T03:10:06;27.80;64.10
67817;DHT22;54614;47.576;7.524;2023-06-22T03:12:32;27.80;64.10
67817;DHT22;54614;47.576;7.524;2023-06-22T03:14:58;27.80;64.00
67817;DHT22;54614;47.576;7.524;2023-06-22T03:17:24;27.80;64.00
67817;DHT22;54614;47.576;7.524;2023-06-22T03:19:50;27.80;64.00
67817;DHT22;54614;47.576;7.524;2023-06-22T03:22:15;27.80;64.00
67817;DHT22;54614;47.576;7.524;2023-06-22T03:24:41;27.80;64.10
67817;DHT22;54614;47.576;7.524;2023-06-22T03:27:07;27.80;64.20
67817;DHT22;54614;47.576;7.524;2023-06-22T03:29:32;27.70;64.10
67817;DHT22;54614;47.576;7.524;2023-06-22T03:31:58;27.70;64.20
67817;DHT22;54614;47.576;7.524;2023-06-22T03:34:24;27.80;64.20
67817;DHT22;54614;47.576;7.524;2023-06-22T03:36:49;27.70;64.00
67817;DHT22;54614;47.576;7.524;2023-06-22T03:39:15;27.60;64.30
67817;DHT22;54614;47.576;7.524;2023-06-22T03:41:40;27.30;65.00
67817;DHT22;54614;47.576;7.524;2023-06-22T03:44:06;27.20;65.40
67817;DHT22;54614;47.576;7.524;2023-06-22T03:46:32;27.10;65.60
67817;DHT22;54614;47.576;7.524;2023-06-22T03:48:57;27.00;65.70
67817;DHT22;54614;47.576;7.524;2023-06-22T03:51:23;27.00;65.90
67817;DHT22;54614;47.576;7.524;2023-06-22T03:53:48;26.90;65.90
67817;DHT22;54614;47.576;7.524;2023-06-22T03:56:14;26.90;65.90
67817;DHT22;54614;47.576;7.524;2023-06-22T03:58:45;26.80;66.30
67817;DHT22;54614;47.576;7.524;2023-06-22T04:01:11;26.80;65.70
67817;DHT22;54614;47.576;7.524;2023-06-22T04:03:37;26.80;65.60
67817;DHT22;54614;47.576;7.524;2023-06-22T04:06:03;26.70;65.60
67817;DHT22;54614;47.576;7.524;2023-06-22T04:08:29;26.70;65.70
67817;DHT22;54614;47.576;7.524;2023-06-22T04:10:55;26.70;66.00
67817;DHT22;54614;47.576;7.524;2023-06-22T04:13:21;26.70;66.50
67817;DHT22;54614;47.576;7.524;2023-06-22T04:15:47;26.60;65.70
67817;DHT22;54614;47.576;7.524;2023-06-22T04:18:13;26.70;65.90
67817;DHT22;54614;47.576;7.524;2023-06-22T04:20:39;26.60;66.00
67817;DHT22;54614;47.576;7.524;2023-06-22T04:23:04;26.50;66.10
67817;DHT22;54614;47.576;7.524;2023-06-22T04:25:30;26.50;66.10
67817;DHT22;54614;47.576;7.524;2023-06-22T04:27:56;26.50;66.10
67817;DHT22;54614;47.576;7.524;2023-06-22T04:30:21;26.50;66.00
67817;DHT22;54614;47.576;7.524;2023-06-22T04:32:48;26.40;66.00
67817;DHT22;54614;47.576;7.524;2023-06-22T04:35:23;26.30;66.30
67817;DHT22;54614;47.576;7.524;2023-06-22T04:37:49;26.40;66.20
67817;DHT22;54614;47.576;7.524;2023-06-22T04:40:15;26.40;66.30
67817;DHT22;54614;47.576;7.524;2023-06-22T04:42:41;26.40;66.30
67817;DHT22;54614;47.576;7.524;2023-06-22T04:45:17;26.30;66.50
67817;DHT22;54614;47.576;7.524;2023-06-22T04:47:43;26.30;66.60
67817;DHT22;54614;47.576;7.524;2023-06-22T04:50:13;26.30;66.60
67817;DHT22;54614;47.576;7.524;2023-06-22T04:52:39;26.20;66.70
67817;DHT22;54614;47.576;7.524;2023-06-22T04:55:05;26.30;66.80
67817;DHT22;54614;47.576;7.524;2023-06-22T04:57:31;26.30;67.00
67817;DHT22;54614;47.576;7.524;2023-06-22T05:00:00;26.20;66.90
67817;DHT22;54614;47.576;7.524;2023-06-22T05:02:38;26.20;66.90
67817;DHT22;54614;47.576;7.524;2023-06-22T05:05:04;26.20;67.00
67817;DHT22;54614;47.576;7.524;2023-06-22T05:07:33;26.20;67.30
67817;DHT22;54614;47.576;7.524;2023-06-22T05:10:00;26.20;67.40
67817;DHT22;54614;47.576;7.524;2023-06-22T05:12:25;26.20;67.70
67817;DHT22;54614;47.576;7.524;2023-06-22T05:14:51;26.20;68.00
67817;DHT22;54614;47.576;7.524;2023-06-22T05:17:16;26.30;68.40
67817;DHT22;54614;47.576;7.524;2023-06-22T05:19:44;26.30;68.00
67817;DHT22;54614;47.576;7.524;2023-06-22T05:22:16;26.30;68.30
67817;DHT22;54614;47.576;7.524;2023-06-22T05:24:43;26.10;68.70
67817;DHT22;54614;47.576;7.524;2023-06-22T05:27:12;26.00;69.20
67817;DHT22;54614;47.576;7.524;2023-06-22T05:29:38;25.90;69.80
67817;DHT22;54614;47.576;7.524;2023-06-22T05:32:05;25.90;70.00
67817;DHT22;54614;47.576;7.524;2023-06-22T05:34:31;25.80;70.20
67817;DHT22;54614;47.576;7.524;2023-06-22T05:36:56;25.80;70.20
67817;DHT22;54614;47.576;7.524;2023-06-22T05:39:24;25.30;72.10
67817;DHT22;54614;47.576;7.524;2023-06-22T05:41:51;25.40;72.10
67817;DHT22;54614;47.576;7.524;2023-06-22T05:44:16;24.30;75.10
67817;DHT22;54614;47.576;7.524;2023-06-22T05:46:43;23.80;77.20
67817;DHT22;54614;47.576;7.524;2023-06-22T05:49:13;23.60;78.20
67817;DHT22;54614;47.576;7.524;2023-06-22T05:51:40;24.30;75.70
67817;DHT22;54614;47.576;7.524;2023-06-22T05:54:06;24.80;73.80
67817;DHT22;54614;47.576;7.524;2023-06-22T05:56:31;25.20;72.70
67817;DHT22;54614;47.576;7.524;2023-06-22T05:58:58;25.40;71.60
67817;DHT22;54614;47.576;7.524;2023-06-22T06:01:23;25.60;71.30
67817;DHT22;54614;47.576;7.524;2023-06-22T06:03:51;25.70;70.50
67817;DHT22;54614;47.576;7.524;2023-06-22T06:06:18;25.90;70.20
67817;DHT22;54614;47.576;7.524;2023-06-22T06:08:43;25.90;69.80
67817;DHT22;54614;47.576;7.524;2023-06-22T06:11:09;26.00;69.50
67817;DHT22;54614;47.576;7.524;2023-06-22T06:13:35;26.20;69.30
67817;DHT22;54614;47.576;7.524;2023-06-22T06:16:00;26.20;69.00
67817;DHT22;54614;47.576;7.524;2023-06-22T06:18:26;26.30;68.70
67817;DHT22;54614;47.576;7.524;2023-06-22T06:20:52;26.40;68.40
67817;DHT22;54614;47.576;7.524;2023-06-22T06:23:18;26.40;68.30
67817;DHT22;54614;47.576;7.524;2023-06-22T06:25:43;26.50;68.20
67817;DHT22;54614;47.576;7.524;2023-06-22T06:28:09;26.50;68.00
67817;DHT22;54614;47.576;7.524;2023-06-22T06:30:35;26.60;67.80
67817;DHT22;54614;47.576;7.524;2023-06-22T06:33:02;26.70;67.60
67817;DHT22;54614;47.576;7.524;2023-06-22T06:35:30;26.70;67.30
67817;DHT22;54614;47.576;7.524;2023-06-22T06:37:56;26.70;67.30
67817;DHT22;54614;47.576;7.524;2023-06-22T06:40:30;26.70;67.30
67817;DHT22;54614;47.576;7.524;2023-06-22T06:42:56;26.70;67.30
67817;DHT22;54614;47.576;7.524;2023-06-22T06:45:23;26.70;67.20
67817;DHT22;54614;47.576;7.524;2023-06-22T06:47:50;26.80;67.10
67817;DHT22;54614;47.576;7.524;2023-06-22T06:50:16;26.90;66.90
67817;DHT22;54614;47.576;7.524;2023-06-22T06:52:42;26.90;66.90
67817;DHT22;54614;47.576;7.524;2023-06-22T06:55:08;27.00;66.90
67817;DHT22;54614;47.576;7.524;2023-06-22T06:57:41;26.90;66.70
67817;DHT22;54614;47.576;7.524;2023-06-22T07:00:11;27.00;66.70
67817;DHT22;54614;47.576;7.524;2023-06-22T07:02:43;26.90;66.60
67817;DHT22;54614;47.576;7.524;2023-06-22T07:05:10;26.90;66.60
67817;DHT22;54614;47.576;7.524;2023-06-22T07:07:36;27.00;66.50
67817;DHT22;54614;47.576;7.524;2023-06-22T07:10:02;26.90;66.50
67817;DHT22;54614;47.576;7.524;2023-06-22T07:12:28;26.90;66.40
67817;DHT22;54614;47.576;7.524;2023-06-22T07:14:56;26.90;66.60
67817;DHT22;54614;47.576;7.524;2023-06-22T07:17:25;27.00;66.40
67817;DHT22;54614;47.576;7.524;2023-06-22T07:19:51;27.00;66.30
67817;DHT22;54614;47.576;7.524;2023-06-22T07:22:17;27.00;66.10
67817;DHT22;54614;47.576;7.524;2023-06-22T07:24:42;27.00;66.00
67817;DHT22;54614;47.576;7.524;2023-06-22T07:27:08;27.00;66.10
67817;DHT22;54614;47.576;7.524;2023-06-22T07:29:36;27.00;66.00
67817;DHT22;54614;47.576;7.524;2023-06-22T07:32:02;27.00;65.90
67817;DHT22;54614;47.576;7.524;2023-06-22T07:34:30;27.00;66.00
67817;DHT22;54614;47.576;7.524;2023-06-22T07:36:56;27.00;65.90
67817;DHT22;54614;47.576;7.524;2023-06-22T07:39:21;27.00;65.80
67817;DHT22;54614;47.576;7.524;2023-06-22T07:41:52;27.00;65.80
67817;DHT22;54614;47.576;7.524;2023-06-22T07:44:18;27.00;65.80
67817;DHT22;54614;47.576;7.524;2023-06-22T07:46:43;27.00;65.90
67817;DHT22;54614;47.576;7.524;2023-06-22T07:49:09;27.00;65.80
67817;DHT22;54614;47.576;7.524;2023-06-22T07:51:35;27.00;65.70
67817;DHT22;54614;47.576;7.524;2023-06-22T07:54:00;27.00;65.60
67817;DHT22;54614;47.576;7.524;2023-06-22T07:56:26;27.00;65.60
67817;DHT22;54614;47.576;7.524;2023-06-22T07:58:52;27.10;65.50
67817;DHT22;54614;47.576;7.524;2023-06-22T08:01:18;27.10;65.50
67817;DHT22;54614;47.576;7.524;2023-06-22T08:03:47;27.00;65.40
67817;DHT22;54614;47.576;7.524;2023-06-22T08:06:13;27.00;65.40
67817;DHT22;54614;47.576;7.524;2023-06-22T08:08:39;27.10;65.40
67817;DHT22;54614;47.576;7.524;2023-06-22T08:11:05;27.10;65.40
67817;DHT22;54614;47.576;7.524;2023-06-22T08:13:31;27.10;65.30
67817;DHT22;54614;47.576;7.524;2023-06-22T08:15:57;27.10;65.20
67817;DHT22;54614;47.576;7.524;2023-06-22T08:18:22;27.10;65.10
67817;DHT22;54614;47.576;7.524;2023-06-22T08:20:48;27.20;65.10
67817;DHT22;54614;47.576;7.524;2023-06-22T08:23:15;27.20;65.10
67817;DHT22;54614;47.576;7.524;2023-06-22T08:25:40;27.20;65.00
67817;DHT22;54614;47.576;7.524;2023-06-22T08:28:06;27.20;65.10
67817;DHT22;54614;47.576;7.524;2023-06-22T08:30:32;27.20;64.90
67817;DHT22;54614;47.576;7.524;2023-06-22T08:32:58;27.20;64.90
67817;DHT22;54614;47.576;7.524;2023-06-22T08:35:23;27.20;64.80
67817;DHT22;54614;47.576;7.524;2023-06-22T08:37:49;27.20;64.80
67817;DHT22;54614;47.576;7.524;2023-06-22T08:40:18;27.30;64.80
67817;DHT22;54614;47.576;7.524;2023-06-22T08:42:45;27.30;64.80
67817;DHT22;54614;47.576;7.524;2023-06-22T08:45:12;27.30;64.70
67817;DHT22;54614;47.576;7.524;2023-06-22T08:47:38;27.30;64.70
67817;DHT22;54614;47.576;7.524;2023-06-22T08:50:05;27.30;64.60
67817;DHT22;54614;47.576;7.524;2023-06-22T08:52:31;27.30;64.60
67817;DHT22;54614;47.576;7.524;2023-06-22T08:54:57;27.30;64.60
67817;DHT22;54614;47.576;7.524;2023-06-22T08:57:27;27.30;64.60
67817;DHT22;54614;47.576;7.524;2023-06-22T08:59:52;27.30;64.50
67817;DHT22;54614;47.576;7.524;2023-06-22T09:02:19;27.30;64.40
67817;DHT22;54614;47.576;7.524;2023-06-22T09:04:46;27.30;64.50
67817;DHT22;54614;47.576;7.524;2023-06-22T09:07:11;27.30;64.40
67817;DHT22;54614;47.576;7.524;2023-06-22T09:09:37;27.30;64.40
67817;DHT22;54614;47.576;7.524;2023-06-22T09:12:03;27.30;64.40
67817;DHT22;54614;47.576;7.524;2023-06-22T09:14:29;27.30;64.30
67817;DHT22;54614;47.576;7.524;2023-06-22T09:16:55;27.40;64.40
67817;DHT22;54614;47.576;7.524;2023-06-22T09:19:20;27.30;64.30
67817;DHT22;54614;47.576;7.524;2023-06-22T09:21:46;27.30;64.30
67817;DHT22;54614;47.576;7.524;2023-06-22T09:24:12;27.40;64.30
67817;DHT22;54614;47.576;7.524;2023-06-22T09:26:37;27.40;64.20
67817;DHT22;54614;47.576;7.524;2023-06-22T09:29:05;27.40;64.20
67817;DHT22;54614;47.576;7.524;2023-06-22T09:31:31;27.40;64.20
67817;DHT22;54614;47.576;7.524;2023-06-22T09:33:57;27.40;64.20
67817;DHT22;54614;47.576;7.524;2023-06-22T09:36:22;27.40;64.10
67817;DHT22;54614;47.576;7.524;2023-06-22T09:38:49;27.40;64.00
67817;DHT22;54614;47.576;7.524;2023-06-22T09:41:24;27.40;64.00
67817;DHT22;54614;47.576;7.524;2023-06-22T09:43:49;27.40;64.00
67817;DHT22;54614;47.576;7.524;2023-06-22T09:46:16;27.40;64.00
67817;DHT22;54614;47.576;7.524;2023-06-22T09:48:41;27.40;64.00
67817;DHT22;54614;47.576;7.524;2023-06-22T09:51:07;27.40;64.00
67817;DHT22;54614;47.576;7.524;2023-06-22T09:53:33;27.40;64.00
67817;DHT22;54614;47.576;7.524;2023-06-22T09:56:00;27.40;64.00
67817;DHT22;54614;47.576;7.524;2023-06-22T09:58:26;27.50;64.10
67817;DHT22;54614;47.576;7.524;2023-06-22T10:00:51;27.50;64.10
67817;DHT22;54614;47.576;7.524;2023-06-22T10:03:18;27.50;64.00
67817;DHT22;54614;47.576;7.524;2023-06-22T10:05:44;27.50;64.00
67817;DHT22;54614;47.576;7.524;2023-06-22T10:08:09;27.50;63.90
67817;DHT22;54614;47.576;7.524;2023-06-22T10:10:35;27.50;63.90
67817;DHT22;54614;47.576;7.524;2023-06-22T10:13:09;27.50;63.90
67817;DHT22;54614;47.576;7.524;2023-06-22T10:15:38;27.50;63.90
67817;DHT22;54614;47.576;7.524;2023-06-22T10:18:04;27.50;63.80
67817;DHT22;54614;47.576;7.524;2023-06-22T10:20:30;27.50;63.80
67817;DHT22;54614;47.576;7.524;2023-06-22T10:22:56;27.50;63.80
67817;DHT22;54614;47.576;7.524;2023-06-22T10:25:21;27.50;63.80
67817;DHT22;54614;47.576;7.524;2023-06-22T10:27:47;27.50;63.80
67817;DHT22;54614;47.576;7.524;2023-06-22T10:30:14;27.50;63.80
67817;DHT22;54614;47.576;7.524;2023-06-22T10:32:41;27.50;63.80
67817;DHT22;54614;47.576;7.524;2023-06-22T10:35:08;27.50;63.80
67817;DHT22;54614;47.576;7.524;2023-06-22T10:37:34;27.50;63.80
67817;DHT22;54614;47.576;7.524;2023-06-22T10:39:59;27.50;63.70
67817;DHT22;54614;47.576;7.524;2023-06-22T10:42:25;27.50;63.80
67817;DHT22;54614;47.576;7.524;2023-06-22T10:44:51;27.60;63.70
67817;DHT22;54614;47.576;7.524;2023-06-22T10:47:16;27.50;64.40
67817;DHT22;54614;47.576;7.524;2023-06-22T10:49:42;27.60;63.70
67817;DHT22;54614;47.576;7.524;2023-06-22T10:52:08;27.60;63.70
67817;DHT22;54614;47.576;7.524;2023-06-22T10:54:38;27.60;63.70
67817;DHT22;54614;47.576;7.524;2023-06-22T10:57:04;27.60;63.60
67817;DHT22;54614;47.576;7.524;2023-06-22T10:59:30;27.60;63.70
67817;DHT22;54614;47.576;7.524;2023-06-22T11:01:56;27.60;63.70
67817;DHT22;54614;47.576;7.524;2023-06-22T11:04:23;27.60;63.60
67817;DHT22;54614;47.576;7.524;2023-06-22T11:06:49;27.50;63.60
67817;DHT22;54614;47.576;7.524;2023-06-22T11:09:15;27.60;63.60
67817;DHT22;54614;47.576;7.524;2023-06-22T11:11:46;27.60;63.60
67817;DHT22;54614;47.576;7.524;2023-06-22T11:14:12;27.60;63.60
67817;DHT22;54614;47.576;7.524;2023-06-22T11:16:37;27.60;63.60
67817;DHT22;54614;47.576;7.524;2023-06-22T11:19:04;27.60;63.60
67817;DHT22;54614;47.576;7.524;2023-06-22T11:21:31;27.60;63.60
67817;DHT22;54614;47.576;7.524;2023-06-22T11:23:57;27.60;63.50
67817;DHT22;54614;47.576;7.524;2023-06-22T11:26:23;27.60;63.60
67817;DHT22;54614;47.576;7.524;2023-06-22T11:28:48;27.60;63.60
67817;DHT22;54614;47.576;7.524;2023-06-22T11:31:14;27.60;63.50
67817;DHT22;54614;47.576;7.524;2023-06-22T11:33:40;27.60;63.50
67817;DHT22;54614;47.576;7.524;2023-06-22T11:36:05;27.60;63.40
67817;DHT22;54614;47.576;7.524;2023-06-22T11:38:32;27.60;63.40
67817;DHT22;54614;47.576;7.524;2023-06-22T11:40:58;27.60;63.40
67817;DHT22;54614;47.576;7.524;2023-06-22T11:43:25;27.70;63.40
67817;DHT22;54614;47.576;7.524;2023-06-22T11:45:50;27.60;63.30
67817;DHT22;54614;47.576;7.524;2023-06-22T11:48:16;27.60;63.30
67817;DHT22;54614;47.576;7.524;2023-06-22T11:50:41;27.70;63.40
67817;DHT22;54614;47.576;7.524;2023-06-22T11:53:07;27.70;63.40
67817;DHT22;54614;47.576;7.524;2023-06-22T11:55:33;27.70;63.30
67817;DHT22;54614;47.576;7.524;2023-06-22T11:57:58;27.70;63.40
67817;DHT22;54614;47.576;7.524;2023-06-22T12:00:26;27.70;63.40
67817;DHT22;54614;47.576;7.524;2023-06-22T12:02:52;27.70;63.40
67817;DHT22;54614;47.576;7.524;2023-06-22T12:05:21;27.70;63.40
67817;DHT22;54614;47.576;7.524;2023-06-22T12:07:48;27.70;63.30
67817;DHT22;54614;47.576;7.524;2023-06-22T12:10:14;27.70;63.30
67817;DHT22;54614;47.576;7.524;2023-06-22T12:12:40;27.70;63.30
67817;DHT22;54614;47.576;7.524;2023-06-22T12:15:06;27.70;63.40
67817;DHT22;54614;47.576;7.524;2023-06-22T12:17:34;27.70;63.30
67817;DHT22;54614;47.576;7.524;2023-06-22T12:20:00;27.70;63.30
67817;DHT22;54614;47.576;7.524;2023-06-22T12:22:27;27.70;63.30
67817;DHT22;54614;47.576;7.524;2023-06-22T12:24:52;27.70;63.30
67817;DHT22;54614;47.576;7.524;2023-06-22T12:27:18;27.70;63.30
67817;DHT22;54614;47.576;7.524;2023-06-22T12:29:47;27.70;63.20
67817;DHT22;54614;47.576;7.524;2023-06-22T12:32:13;27.70;63.20
67817;DHT22;54614;47.576;7.524;2023-06-22T12:34:41;27.70;63.20
67817;DHT22;54614;47.576;7.524;2023-06-22T12:37:06;27.70;63.20
67817;DHT22;54614;47.576;7.524;2023-06-22T12:39:32;27.70;63.20
67817;DHT22;54614;47.576;7.524;2023-06-22T12:41:58;27.70;63.20
67817;DHT22;54614;47.576;7.524;2023-06-22T12:44:23;27.70;63.20
67817;DHT22;54614;47.576;7.524;2023-06-22T12:46:49;27.70;63.20
67817;DHT22;54614;47.576;7.524;2023-06-22T12:49:15;27.80;63.10
67817;DHT22;54614;47.576;7.524;2023-06-22T12:51:41;27.70;63.10
67817;DHT22;54614;47.576;7.524;2023-06-22T12:54:10;27.70;63.10
67817;DHT22;54614;47.576;7.524;2023-06-22T12:56:37;27.70;63.10
67817;DHT22;54614;47.576;7.524;2023-06-22T12:59:03;27.70;63.10
67817;DHT22;54614;47.576;7.524;2023-06-22T13:01:30;27.70;63.20
67817;DHT22;54614;47.576;7.524;2023-06-22T13:03:56;27.70;63.20
67817;DHT22;54614;47.576;7.524;2023-06-22T13:06:22;27.70;63.10
67817;DHT22;54614;47.576;7.524;2023-06-22T13:08:47;27.80;63.10
67817;DHT22;54614;47.576;7.524;2023-06-22T13:11:13;27.80;63.10
67817;DHT22;54614;47.576;7.524;2023-06-22T13:13:39;27.80;63.10
67817;DHT22;54614;47.576;7.524;2023-06-22T13:16:05;27.80;63.00
67817;DHT22;54614;47.576;7.524;2023-06-22T13:18:31;27.80;63.00
67817;DHT22;54614;47.576;7.524;2023-06-22T13:20:57;27.80;63.00
67817;DHT22;54614;47.576;7.524;2023-06-22T13:23:23;27.80;63.00
67817;DHT22;54614;47.576;7.524;2023-06-22T13:25:49;27.80;63.00
67817;DHT22;54614;47.576;7.524;2023-06-22T13:28:15;27.80;62.90
67817;DHT22;54614;47.576;7.524;2023-06-22T13:30:42;27.80;62.90
67817;DHT22;54614;47.576;7.524;2023-06-22T13:33:10;27.80;62.90
67817;DHT22;54614;47.576;7.524;2023-06-22T13:35:36;27.80;62.90
67817;DHT22;54614;47.576;7.524;2023-06-22T13:38:03;27.80;62.90
67817;DHT22;54614;47.576;7.524;2023-06-22T13:40:28;27.80;62.90
67817;DHT22;54614;47.576;7.524;2023-06-22T13:42:55;27.80;62.90
67817;DHT22;54614;47.576;7.524;2023-06-22T13:45:21;27.80;62.90
67817;DHT22;54614;47.576;7.524;2023-06-22T13:47:46;27.80;62.90
67817;DHT22;54614;47.576;7.524;2023-06-22T13:50:13;27.80;62.90
67817;DHT22;54614;47.576;7.524;2023-06-22T13:52:39;27.80;62.80
67817;DHT22;54614;47.576;7.524;2023-06-22T13:55:05;27.80;62.80
67817;DHT22;54614;47.576;7.524;2023-06-22T13:57:32;27.80;62.70
67817;DHT22;54614;47.576;7.524;2023-06-22T13:59:59;27.90;62.80
67817;DHT22;54614;47.576;7.524;2023-06-22T14:02:26;27.80;62.80
67817;DHT22;54614;47.576;7.524;2023-06-22T14:04:52;27.80;62.70
67817;DHT22;54614;47.576;7.524;2023-06-22T14:07:17;27.80;62.70
67817;DHT22;54614;47.576;7.524;2023-06-22T14:09:44;27.90;62.80
67817;DHT22;54614;47.576;7.524;2023-06-22T14:12:11;27.90;62.70
67817;DHT22;54614;47.576;7.524;2023-06-22T14:14:37;27.90;62.70
67817;DHT22;54614;47.576;7.524;2023-06-22T14:17:03;27.90;62.70
67817;DHT22;54614;47.576;7.524;2023-06-22T14:19:29;27.90;62.70
67817;DHT22;54614;47.576;7.524;2023-06-22T14:21:55;27.90;62.70
67817;DHT22;54614;47.576;7.524;2023-06-22T14:24:22;27.90;62.60
67817;DHT22;54614;47.576;7.524;2023-06-22T14:26:48;27.90;62.60
67817;DHT22;54614;47.576;7.524;2023-06-22T14:29:14;28.00;62.70
67817;DHT22;54614;47.576;7.524;2023-06-22T14:31:39;28.00;62.80
67817;DHT22;54614;47.576;7.524;2023-06-22T14:34:05;28.00;62.80
67817;DHT22;54614;47.576;7.524;2023-06-22T14:36:31;28.00;62.80
67817;DHT22;54614;47.576;7.524;2023-06-22T14:38:57;28.00;62.70
67817;DHT22;54614;47.576;7.524;2023-06-22T14:41:23;28.00;62.70
67817;DHT22;54614;47.576;7.524;2023-06-22T14:43:50;28.00;62.60
67817;DHT22;54614;47.576;7.524;2023-06-22T14:46:17;28.00;62.70
67817;DHT22;54614;47.576;7.524;2023-06-22T14:48:43;28.10;62.80
67817;DHT22;54614;47.576;7.524;2023-06-22T14:51:09;28.00;62.70
67817;DHT22;54614;47.576;7.524;2023-06-22T14:53:36;28.00;62.70
67817;DHT22;54614;47.576;7.524;2023-06-22T14:56:02;28.00;62.80
67817;DHT22;54614;47.576;7.524;2023-06-22T14:58:29;28.00;62.80
67817;DHT22;54614;47.576;7.524;2023-06-22T15:01:00;28.00;62.90
67817;DHT22;54614;47.576;7.524;2023-06-22T15:03:26;28.00;63.00
67817;DHT22;54614;47.576;7.524;2023-06-22T15:05:53;28.00;63.00
67817;DHT22;54614;47.576;7.524;2023-06-22T15:08:19;28.00;62.90
67817;DHT22;54614;47.576;7.524;2023-06-22T15:10:45;28.10;63.00
67817;DHT22;54614;47.576;7.524;2023-06-22T15:13:10;28.10;62.90
67817;DHT22;54614;47.576;7.524;2023-06-22T15:15:36;28.10;62.90
67817;DHT22;54614;47.576;7.524;2023-06-22T15:18:02;28.10;62.90
67817;DHT22;54614;47.576;7.524;2023-06-22T15:20:28;28.10;63.00
67817;DHT22;54614;47.576;7.524;2023-06-22T15:22:53;28.10;62.90
67817;DHT22;54614;47.576;7.524;2023-06-22T15:25:19;28.10;62.80
67817;DHT22;54614;47.576;7.524;2023-06-22T15:27:44;28.10;62.80
67817;DHT22;54614;47.576;7.524;2023-06-22T15:30:10;28.10;62.80
67817;DHT22;54614;47.576;7.524;2023-06-22T15:32:36;28.10;62.80